sensor_id;sensor_type;location;lat;lon;timestamp;temperature;humidity
52323;DHT22;38263;52.920;6.238;2022-08-21T00:00:46;15.00;99.90
52323;DHT22;38263;52.920;6.238;2022-08-21T00:03:13;15.30;99.90
52323;DHT22;38263;52.920;6.238;2022-08-21T00:05:42;15.10;99.90
52323;DHT22;38263;52.920;6.238;2022-08-21T00:08:08;15.20;99.90
52323;DHT22;38263;52.920;6.238;2022-08-21T00:10:34;15.20;99.90
52323;DHT22;38263;52.920;6.238;2022-08-21T00:13:01;15.30;99.90
52323;DHT22;38263;52.920;6.238;2022-08-21T00:15:29;15.10;99.90
52323;DHT22;38263;52.920;6.238;2022-08-21T00:17:56;14.90;99.90
52323;DHT22;38263;52.920;6.238;2022-08-21T00:20:22;14.70;99.90
52323;DHT22;38263;52.920;6.238;2022-08-21T00:22:48;14.80;99.90
52323;DHT22;38263;52.920;6.238;2022-08-21T00:25:15;14.70;99.90
52323;DHT22;38263;52.920;6.238;2022-08-21T00:27:41;14.50;99.90
52323;DHT22;38263;52.920;6.238;2022-08-21T00:30:11;14.50;99.90
52323;DHT22;38263;52.920;6.238;2022-08-21T00:32:38;14.60;99.90
52323;DHT22;38263;52.920;6.238;2022-08-21T00:35:09;14.60;99.90
52323;DHT22;38263;52.920;6.238;2022-08-21T00:37:40;14.60;99.90
52323;DHT22;38263;52.920;6.238;2022-08-21T00:40:08;14.60;99.90
52323;DHT22;38263;52.920;6.238;2022-08-21T00:42:34;14.70;99.90
52323;DHT22;38263;52.920;6.238;2022-08-21T00:45:00;14.80;99.90
52323;DHT22;38263;52.920;6.238;2022-08-21T00:47:26;14.60;99.90
52323;DHT22;38263;52.920;6.238;2022-08-21T00:49:52;14.60;99.90
52323;DHT22;38263;52.920;6.238;2022-08-21T00:52:22;14.80;99.90
52323;DHT22;38263;52.920;6.238;2022-08-21T00:54:49;14.80;99.90
52323;DHT22;38263;52.920;6.238;2022-08-21T00:57:20;15.10;99.90
52323;DHT22;38263;52.920;6.238;2022-08-21T00:59:49;14.80;99.90
52323;DHT22;38263;52.920;6.238;2022-08-21T01:02:16;14.80;99.90
52323;DHT22;38263;52.920;6.238;2022-08-21T01:04:42;14.90;99.90
52323;DHT22;38263;52.920;6.238;2022-08-21T01:07:09;14.80;99.90
52323;DHT22;38263;52.920;6.238;2022-08-21T01:09:36;14.90;99.90
52323;DHT22;38263;52.920;6.238;2022-08-21T01:12:02;15.10;99.90
52323;DHT22;38263;52.920;6.238;2022-08-21T01:14:29;14.90;99.90
52323;DHT22;38263;52.920;6.238;2022-08-21T01:16:56;14.50;99.90
52323;DHT22;38263;52.920;6.238;2022-08-21T01:19:23;14.40;99.90
52323;DHT22;38263;52.920;6.238;2022-08-21T01:21:49;14.60;99.90
52323;DHT22;38263;52.920;6.238;2022-08-21T01:24:15;14.70;99.90
52323;DHT22;38263;52.920;6.238;2022-08-21T01:26:41;14.70;99.90
52323;DHT22;38263;52.920;6.238;2022-08-21T01:29:26;14.70;99.90
52323;DHT22;38263;52.920;6.238;2022-08-21T01:31:53;14.80;99.90
52323;DHT22;38263;52.920;6.238;2022-08-21T01:34:19;14.60;99.90
52323;DHT22;38263;52.920;6.238;2022-08-21T01:36:45;14.70;99.90
52323;DHT22;38263;52.920;6.238;2022-08-21T01:39:12;14.60;99.90
52323;DHT22;38263;52.920;6.238;2022-08-21T01:41:37;14.70;99.90
52323;DHT22;38263;52.920;6.238;2022-08-21T01:44:03;14.60;99.90
52323;DHT22;38263;52.920;6.238;2022-08-21T01:46:29;14.60;99.90
52323;DHT22;38263;52.920;6.238;2022-08-21T01:48:54;14.40;99.90
52323;DHT22;38263;52.920;6.238;2022-08-21T01:51:20;14.50;99.90
52323;DHT22;38263;52.920;6.238;2022-08-21T01:53:46;14.70;99.90
52323;DHT22;38263;52.920;6.238;2022-08-21T01:56:13;14.60;99.90
52323;DHT22;38263;52.920;6.238;2022-08-21T01:58:44;14.70;99.90
52323;DHT22;38263;52.920;6.238;2022-08-21T02:01:10;14.50;99.90
52323;DHT22;38263;52.920;6.238;2022-08-21T02:03:37;14.60;99.90
52323;DHT22;38263;52.920;6.238;2022-08-21T02:06:04;14.70;99.90
52323;DHT22;38263;52.920;6.238;2022-08-21T02:08:31;14.50;99.90
52323;DHT22;38263;52.920;6.238;2022-08-21T02:10:56;14.50;99.90
52323;DHT22;38263;52.920;6.238;2022-08-21T02:13:22;14.70;99.90
52323;DHT22;38263;52.920;6.238;2022-08-21T02:15:48;14.70;99.90
52323;DHT22;38263;52.920;6.238;2022-08-21T02:18:14;14.50;99.90
52323;DHT22;38263;52.920;6.238;2022-08-21T02:20:43;14.60;99.90
52323;DHT22;38263;52.920;6.238;2022-08-21T02:23:10;14.60;99.90
52323;DHT22;38263;52.920;6.238;2022-08-21T02:28:05;14.50;99.90
52323;DHT22;38263;52.920;6.238;2022-08-21T02:30:35;14.50;99.90
52323;DHT22;38263;52.920;6.238;2022-08-21T02:33:04;14.40;99.90
52323;DHT22;38263;52.920;6.238;2022-08-21T02:35:30;14.40;99.90
52323;DHT22;38263;52.920;6.238;2022-08-21T02:37:59;14.40;99.90
52323;DHT22;38263;52.920;6.238;2022-08-21T02:40:28;14.50;99.90
52323;DHT22;38263;52.920;6.238;2022-08-21T02:42:55;14.40;99.90
52323;DHT22;38263;52.920;6.238;2022-08-21T02:45:21;14.40;99.90
52323;DHT22;38263;52.920;6.238;2022-08-21T02:47:49;14.40;99.90
52323;DHT22;38263;52.920;6.238;2022-08-21T02:50:19;14.30;99.90
52323;DHT22;38263;52.920;6.238;2022-08-21T02:52:45;14.40;99.90
52323;DHT22;38263;52.920;6.238;2022-08-21T02:55:11;14.30;99.90
52323;DHT22;38263;52.920;6.238;2022-08-21T02:57:37;14.20;99.90
52323;DHT22;38263;52.920;6.238;2022-08-21T03:00:04;14.20;99.90
52323;DHT22;38263;52.920;6.238;2022-08-21T03:02:30;14.40;99.90
52323;DHT22;38263;52.920;6.238;2022-08-21T03:04:56;14.20;99.90
52323;DHT22;38263;52.920;6.238;2022-08-21T03:09:48;14.50;99.90
52323;DHT22;38263;52.920;6.238;2022-08-21T03:12:13;14.30;99.90
52323;DHT22;38263;52.920;6.238;2022-08-21T03:14:39;14.30;99.90
52323;DHT22;38263;52.920;6.238;2022-08-21T03:17:05;14.40;99.90
52323;DHT22;38263;52.920;6.238;2022-08-21T03:19:30;14.30;99.90
52323;DHT22;38263;52.920;6.238;2022-08-21T03:21:56;14.40;99.90
52323;DHT22;38263;52.920;6.238;2022-08-21T03:24:21;14.30;99.90
52323;DHT22;38263;52.920;6.238;2022-08-21T03:26:47;14.30;99.90
52323;DHT22;38263;52.920;6.238;2022-08-21T03:29:12;14.30;99.90
52323;DHT22;38263;52.920;6.238;2022-08-21T03:31:39;14.30;99.90
52323;DHT22;38263;52.920;6.238;2022-08-21T03:34:04;14.40;99.90
52323;DHT22;38263;52.920;6.238;2022-08-21T03:36:30;14.40;99.90
52323;DHT22;38263;52.920;6.238;2022-08-21T03:38:56;14.30;99.90
52323;DHT22;38263;52.920;6.238;2022-08-21T03:41:22;14.30;99.90
52323;DHT22;38263;52.920;6.238;2022-08-21T03:43:47;14.20;99.90
52323;DHT22;38263;52.920;6.238;2022-08-21T03:46:13;14.20;99.90
52323;DHT22;38263;52.920;6.238;2022-08-21T03:48:39;14.30;99.90
52323;DHT22;38263;52.920;6.238;2022-08-21T03:51:05;14.20;99.90
52323;DHT22;38263;52.920;6.238;2022-08-21T03:58:26;14.20;99.90
52323;DHT22;38263;52.920;6.238;2022-08-21T04:00:55;14.30;99.90
52323;DHT22;38263;52.920;6.238;2022-08-21T04:03:22;14.40;99.90
52323;DHT22;38263;52.920;6.238;2022-08-21T04:05:48;14.10;99.90
52323;DHT22;38263;52.920;6.238;2022-08-21T04:08:14;14.00;99.90
52323;DHT22;38263;52.920;6.238;2022-08-21T04:10:45;14.10;99.90
52323;DHT22;38263;52.920;6.238;2022-08-21T04:13:11;14.20;99.90
52323;DHT22;38263;52.920;6.238;2022-08-21T04:15:38;14.10;99.90
52323;DHT22;38263;52.920;6.238;2022-08-21T04:18:04;14.20;99.90
52323;DHT22;38263;52.920;6.238;2022-08-21T04:20:30;14.20;99.90
52323;DHT22;38263;52.920;6.238;2022-08-21T04:22:55;14.10;99.90
52323;DHT22;38263;52.920;6.238;2022-08-21T04:25:23;14.00;99.90
52323;DHT22;38263;52.920;6.238;2022-08-21T04:27:51;14.00;99.90
52323;DHT22;38263;52.920;6.238;2022-08-21T04:30:16;14.20;99.90
52323;DHT22;38263;52.920;6.238;2022-08-21T04:32:45;14.00;99.90
52323;DHT22;38263;52.920;6.238;2022-08-21T04:35:11;14.00;99.90
52323;DHT22;38263;52.920;6.238;2022-08-21T04:37:37;14.10;99.90
52323;DHT22;38263;52.920;6.238;2022-08-21T04:40:04;14.10;99.90
52323;DHT22;38263;52.920;6.238;2022-08-21T04:42:30;13.90;99.90
52323;DHT22;38263;52.920;6.238;2022-08-21T04:44:56;14.20;99.90
52323;DHT22;38263;52.920;6.238;2022-08-21T04:47:23;14.00;99.90
52323;DHT22;38263;52.920;6.238;2022-08-21T04:49:49;14.00;99.90
52323;DHT22;38263;52.920;6.238;2022-08-21T04:52:21;14.10;99.90
52323;DHT22;38263;52.920;6.238;2022-08-21T04:54:48;14.00;99.90
52323;DHT22;38263;52.920;6.238;2022-08-21T04:57:15;14.10;99.90
52323;DHT22;38263;52.920;6.238;2022-08-21T04:59:44;14.20;99.90
52323;DHT22;38263;52.920;6.238;2022-08-21T05:02:11;14.10;99.90
52323;DHT22;38263;52.920;6.238;2022-08-21T05:04:41;14.10;99.90
52323;DHT22;38263;52.920;6.238;2022-08-21T05:07:12;14.10;99.90
52323;DHT22;38263;52.920;6.238;2022-08-21T05:09:40;14.00;99.90
52323;DHT22;38263;52.920;6.238;2022-08-21T05:12:06;14.10;99.90
52323;DHT22;38263;52.920;6.238;2022-08-21T05:14:31;14.10;99.90
52323;DHT22;38263;52.920;6.238;2022-08-21T05:16:57;14.20;99.90
52323;DHT22;38263;52.920;6.238;2022-08-21T05:19:24;14.20;99.90
52323;DHT22;38263;52.920;6.238;2022-08-21T05:21:49;14.30;99.90
52323;DHT22;38263;52.920;6.238;2022-08-21T05:24:16;14.30;99.90
52323;DHT22;38263;52.920;6.238;2022-08-21T05:26:41;14.40;99.90
52323;DHT22;38263;52.920;6.238;2022-08-21T05:29:07;14.50;99.90
52323;DHT22;38263;52.920;6.238;2022-08-21T05:31:33;14.50;99.90
52323;DHT22;38263;52.920;6.238;2022-08-21T05:33:58;14.50;99.90
52323;DHT22;38263;52.920;6.238;2022-08-21T05:36:24;14.60;99.90
52323;DHT22;38263;52.920;6.238;2022-08-21T05:38:50;14.70;99.90
52323;DHT22;38263;52.920;6.238;2022-08-21T05:41:16;14.80;99.90
52323;DHT22;38263;52.920;6.238;2022-08-21T05:43:41;14.80;99.90
52323;DHT22;38263;52.920;6.238;2022-08-21T05:46:07;14.80;99.90
52323;DHT22;38263;52.920;6.238;2022-08-21T05:48:33;14.90;99.90
52323;DHT22;38263;52.920;6.238;2022-08-21T05:51:07;15.10;99.90
52323;DHT22;38263;52.920;6.238;2022-08-21T05:53:33;15.10;99.90
52323;DHT22;38263;52.920;6.238;2022-08-21T05:58:25;15.20;99.90
52323;DHT22;38263;52.920;6.238;2022-08-21T06:00:51;15.30;99.90
52323;DHT22;38263;52.920;6.238;2022-08-21T06:03:24;15.50;99.90
52323;DHT22;38263;52.920;6.238;2022-08-21T06:05:50;15.50;99.90
52323;DHT22;38263;52.920;6.238;2022-08-21T06:08:17;15.90;99.90
52323;DHT22;38263;52.920;6.238;2022-08-21T06:10:43;16.40;99.90
52323;DHT22;38263;52.920;6.238;2022-08-21T06:13:10;17.20;99.90
52323;DHT22;38263;52.920;6.238;2022-08-21T06:15:37;17.50;99.90
52323;DHT22;38263;52.920;6.238;2022-08-21T06:18:03;18.20;99.90
52323;DHT22;38263;52.920;6.238;2022-08-21T06:20:28;20.70;99.90
52323;DHT22;38263;52.920;6.238;2022-08-21T06:22:54;19.90;99.90
52323;DHT22;38263;52.920;6.238;2022-08-21T06:25:19;20.60;99.90
52323;DHT22;38263;52.920;6.238;2022-08-21T06:27:45;21.00;99.90
52323;DHT22;38263;52.920;6.238;2022-08-21T06:30:12;21.10;99.90
52323;DHT22;38263;52.920;6.238;2022-08-21T06:32:38;21.90;99.90
52323;DHT22;38263;52.920;6.238;2022-08-21T06:35:04;21.80;99.90
52323;DHT22;38263;52.920;6.238;2022-08-21T06:37:30;22.30;99.90
52323;DHT22;38263;52.920;6.238;2022-08-21T06:39:56;22.60;99.90
52323;DHT22;38263;52.920;6.238;2022-08-21T06:42:22;23.10;99.90
52323;DHT22;38263;52.920;6.238;2022-08-21T06:44:47;23.10;99.90
52323;DHT22;38263;52.920;6.238;2022-08-21T06:47:13;23.40;99.90
52323;DHT22;38263;52.920;6.238;2022-08-21T06:49:39;23.70;99.90
52323;DHT22;38263;52.920;6.238;2022-08-21T06:52:09;23.80;99.90
52323;DHT22;38263;52.920;6.238;2022-08-21T06:54:35;24.20;99.90
52323;DHT22;38263;52.920;6.238;2022-08-21T06:57:01;24.10;99.90
52323;DHT22;38263;52.920;6.238;2022-08-21T06:59:27;24.40;99.90
52323;DHT22;38263;52.920;6.238;2022-08-21T07:01:52;24.60;99.90
52323;DHT22;38263;52.920;6.238;2022-08-21T07:04:18;25.00;99.90
52323;DHT22;38263;52.920;6.238;2022-08-21T07:06:45;25.30;99.90
52323;DHT22;38263;52.920;6.238;2022-08-21T07:09:10;25.50;99.90
52323;DHT22;38263;52.920;6.238;2022-08-21T07:11:36;24.90;99.90
52323;DHT22;38263;52.920;6.238;2022-08-21T07:14:03;24.60;99.90
52323;DHT22;38263;52.920;6.238;2022-08-21T07:16:29;23.60;99.90
52323;DHT22;38263;52.920;6.238;2022-08-21T07:18:55;22.70;99.90
52323;DHT22;38263;52.920;6.238;2022-08-21T07:21:20;22.20;99.90
52323;DHT22;38263;52.920;6.238;2022-08-21T07:23:49;22.70;99.90
52323;DHT22;38263;52.920;6.238;2022-08-21T07:26:18;21.40;99.90
52323;DHT22;38263;52.920;6.238;2022-08-21T07:28:46;21.00;99.90
52323;DHT22;38263;52.920;6.238;2022-08-21T07:31:14;21.00;99.90
52323;DHT22;38263;52.920;6.238;2022-08-21T07:33:41;20.40;99.90
52323;DHT22;38263;52.920;6.238;2022-08-21T07:36:07;20.40;99.90
52323;DHT22;38263;52.920;6.238;2022-08-21T07:38:33;20.00;99.90
52323;DHT22;38263;52.920;6.238;2022-08-21T07:41:00;20.20;99.90
52323;DHT22;38263;52.920;6.238;2022-08-21T07:43:27;20.00;99.90
52323;DHT22;38263;52.920;6.238;2022-08-21T07:45:53;20.20;99.90
52323;DHT22;38263;52.920;6.238;2022-08-21T07:48:22;20.00;99.90
52323;DHT22;38263;52.920;6.238;2022-08-21T07:50:49;20.10;99.90
52323;DHT22;38263;52.920;6.238;2022-08-21T07:53:15;20.10;99.90
52323;DHT22;38263;52.920;6.238;2022-08-21T07:55:41;20.10;99.90
52323;DHT22;38263;52.920;6.238;2022-08-21T07:58:07;20.20;99.90
52323;DHT22;38263;52.920;6.238;2022-08-21T08:00:33;20.10;99.90
52323;DHT22;38263;52.920;6.238;2022-08-21T08:02:59;20.30;99.90
52323;DHT22;38263;52.920;6.238;2022-08-21T08:05:27;20.10;99.90
52323;DHT22;38263;52.920;6.238;2022-08-21T08:07:53;20.20;99.90
52323;DHT22;38263;52.920;6.238;2022-08-21T08:10:20;20.40;99.90
52323;DHT22;38263;52.920;6.238;2022-08-21T08:12:46;20.30;99.90
52323;DHT22;38263;52.920;6.238;2022-08-21T08:15:15;20.50;99.90
52323;DHT22;38263;52.920;6.238;2022-08-21T08:17:41;20.30;99.90
52323;DHT22;38263;52.920;6.238;2022-08-21T08:20:08;20.60;99.90
52323;DHT22;38263;52.920;6.238;2022-08-21T08:22:36;20.20;99.90
52323;DHT22;38263;52.920;6.238;2022-08-21T08:25:03;20.80;99.90
52323;DHT22;38263;52.920;6.238;2022-08-21T08:27:29;20.70;99.90
52323;DHT22;38263;52.920;6.238;2022-08-21T08:29:55;20.90;99.90
52323;DHT22;38263;52.920;6.238;2022-08-21T08:32:21;20.70;99.90
52323;DHT22;38263;52.920;6.238;2022-08-21T08:34:48;21.00;99.90
52323;DHT22;38263;52.920;6.238;2022-08-21T08:37:14;21.10;99.90
52323;DHT22;38263;52.920;6.238;2022-08-21T08:39:40;21.00;99.90
52323;DHT22;38263;52.920;6.238;2022-08-21T08:42:07;20.90;99.90
52323;DHT22;38263;52.920;6.238;2022-08-21T08:44:41;20.90;99.90
52323;DHT22;38263;52.920;6.238;2022-08-21T08:47:09;21.20;99.90
52323;DHT22;38263;52.920;6.238;2022-08-21T08:50:00;21.00;99.90
52323;DHT22;38263;52.920;6.238;2022-08-21T08:52:30;21.20;99.90
52323;DHT22;38263;52.920;6.238;2022-08-21T08:55:18;21.20;99.90
52323;DHT22;38263;52.920;6.238;2022-08-21T08:57:47;21.50;99.90
52323;DHT22;38263;52.920;6.238;2022-08-21T09:00:16;21.30;99.90
52323;DHT22;38263;52.920;6.238;2022-08-21T09:02:43;21.10;99.90
52323;DHT22;38263;52.920;6.238;2022-08-21T09:05:21;21.40;99.90
52323;DHT22;38263;52.920;6.238;2022-08-21T09:07:58;21.40;99.90
52323;DHT22;38263;52.920;6.238;2022-08-21T09:10:30;21.50;99.90
52323;DHT22;38263;52.920;6.238;2022-08-21T09:16:21;21.40;99.90
52323;DHT22;38263;52.920;6.238;2022-08-21T09:18:59;21.70;99.90
52323;DHT22;38263;52.920;6.238;2022-08-21T09:21:36;21.60;99.90
52323;DHT22;38263;52.920;6.238;2022-08-21T09:26:57;21.80;99.90
52323;DHT22;38263;52.920;6.238;2022-08-21T09:29:30;22.00;99.90
52323;DHT22;38263;52.920;6.238;2022-08-21T09:31:56;24.00;99.90
52323;DHT22;38263;52.920;6.238;2022-08-21T09:34:28;22.50;99.90
52323;DHT22;38263;52.920;6.238;2022-08-21T09:36:54;22.40;99.90
52323;DHT22;38263;52.920;6.238;2022-08-21T09:39:39;22.60;99.90
52323;DHT22;38263;52.920;6.238;2022-08-21T09:42:07;22.80;99.90
52323;DHT22;38263;52.920;6.238;2022-08-21T09:44:39;22.60;99.90
52323;DHT22;38263;52.920;6.238;2022-08-21T09:47:09;22.50;99.90
52323;DHT22;38263;52.920;6.238;2022-08-21T09:49:40;22.40;99.90
52323;DHT22;38263;52.920;6.238;2022-08-21T09:52:21;22.20;99.90
52323;DHT22;38263;52.920;6.238;2022-08-21T09:54:51;22.20;99.90
52323;DHT22;38263;52.920;6.238;2022-08-21T09:57:26;22.50;99.90
52323;DHT22;38263;52.920;6.238;2022-08-21T10:00:29;22.40;99.90
52323;DHT22;38263;52.920;6.238;2022-08-21T10:03:12;22.00;99.90
52323;DHT22;38263;52.920;6.238;2022-08-21T10:05:39;22.10;99.90
52323;DHT22;38263;52.920;6.238;2022-08-21T10:08:19;22.20;99.90
52323;DHT22;38263;52.920;6.238;2022-08-21T10:10:45;22.40;99.90
52323;DHT22;38263;52.920;6.238;2022-08-21T10:13:21;24.60;99.90
52323;DHT22;38263;52.920;6.238;2022-08-21T10:16:13;22.40;99.90
52323;DHT22;38263;52.920;6.238;2022-08-21T10:19:06;22.70;99.90
52323;DHT22;38263;52.920;6.238;2022-08-21T10:24:11;22.70;99.90
52323;DHT22;38263;52.920;6.238;2022-08-21T10:32:17;23.50;99.90
52323;DHT22;38263;52.920;6.238;2022-08-21T10:34:48;23.50;99.90
52323;DHT22;38263;52.920;6.238;2022-08-21T10:37:25;23.10;99.90
52323;DHT22;38263;52.920;6.238;2022-08-21T10:39:57;23.20;99.90
52323;DHT22;38263;52.920;6.238;2022-08-21T10:42:36;23.10;99.90
52323;DHT22;38263;52.920;6.238;2022-08-21T10:45:11;23.20;99.90
52323;DHT22;38263;52.920;6.238;2022-08-21T10:47:49;23.10;99.90
52323;DHT22;38263;52.920;6.238;2022-08-21T10:50:39;22.80;99.90
52323;DHT22;38263;52.920;6.238;2022-08-21T10:53:15;23.10;99.90
52323;DHT22;38263;52.920;6.238;2022-08-21T10:56:01;22.80;99.90
52323;DHT22;38263;52.920;6.238;2022-08-21T10:58:37;22.90;99.90
52323;DHT22;38263;52.920;6.238;2022-08-21T11:01:13;22.90;99.90
52323;DHT22;38263;52.920;6.238;2022-08-21T11:03:46;22.90;99.90
52323;DHT22;38263;52.920;6.238;2022-08-21T11:06:25;22.90;99.90
52323;DHT22;38263;52.920;6.238;2022-08-21T11:09:03;23.00;99.90
52323;DHT22;38263;52.920;6.238;2022-08-21T11:11:34;23.00;99.90
52323;DHT22;38263;52.920;6.238;2022-08-21T11:14:09;23.30;99.90
52323;DHT22;38263;52.920;6.238;2022-08-21T11:16:49;23.10;99.90
52323;DHT22;38263;52.920;6.238;2022-08-21T11:20:33;23.10;99.90
52323;DHT22;38263;52.920;6.238;2022-08-21T11:22:48;23.00;99.90
52323;DHT22;38263;52.920;6.238;2022-08-21T11:25:35;22.70;99.90
52323;DHT22;38263;52.920;6.238;2022-08-21T11:28:24;23.20;99.90
52323;DHT22;38263;52.920;6.238;2022-08-21T11:38:54;23.70;99.90
52323;DHT22;38263;52.920;6.238;2022-08-21T11:44:09;23.90;99.90
52323;DHT22;38263;52.920;6.238;2022-08-21T11:49:47;24.00;99.90
52323;DHT22;38263;52.920;6.238;2022-08-21T11:52:16;24.10;99.90
52323;DHT22;38263;52.920;6.238;2022-08-21T11:54:55;24.20;99.90
52323;DHT22;38263;52.920;6.238;2022-08-21T11:57:28;24.10;99.90
52323;DHT22;38263;52.920;6.238;2022-08-21T12:00:26;24.40;99.90
52323;DHT22;38263;52.920;6.238;2022-08-21T12:02:58;24.00;99.90
52323;DHT22;38263;52.920;6.238;2022-08-21T12:05:29;24.10;99.90
52323;DHT22;38263;52.920;6.238;2022-08-21T12:08:45;24.20;99.90
52323;DHT22;38263;52.920;6.238;2022-08-21T12:11:02;24.20;99.90
52323;DHT22;38263;52.920;6.238;2022-08-21T12:13:31;24.00;99.90
52323;DHT22;38263;52.920;6.238;2022-08-21T12:18:35;24.10;99.90
52323;DHT22;38263;52.920;6.238;2022-08-21T12:21:26;24.10;99.90
52323;DHT22;38263;52.920;6.238;2022-08-21T12:26:35;24.10;99.90
52323;DHT22;38263;52.920;6.238;2022-08-21T12:29:12;23.90;99.90
52323;DHT22;38263;52.920;6.238;2022-08-21T12:34:17;24.20;99.90
52323;DHT22;38263;52.920;6.238;2022-08-21T12:37:03;24.30;99.90
52323;DHT22;38263;52.920;6.238;2022-08-21T12:39:31;23.50;99.90
52323;DHT22;38263;52.920;6.238;2022-08-21T12:42:06;24.00;99.90
52323;DHT22;38263;52.920;6.238;2022-08-21T12:44:56;24.00;99.90
52323;DHT22;38263;52.920;6.238;2022-08-21T12:47:57;23.90;99.90
52323;DHT22;38263;52.920;6.238;2022-08-21T12:50:38;23.70;99.90
52323;DHT22;38263;52.920;6.238;2022-08-21T12:53:58;23.70;99.90
52323;DHT22;38263;52.920;6.238;2022-08-21T12:56:21;24.00;99.90
52323;DHT22;38263;52.920;6.238;2022-08-21T12:58:50;23.80;99.90
52323;DHT22;38263;52.920;6.238;2022-08-21T13:01:36;23.80;99.90
52323;DHT22;38263;52.920;6.238;2022-08-21T13:04:09;23.70;99.90
52323;DHT22;38263;52.920;6.238;2022-08-21T13:06:39;23.90;99.90
52323;DHT22;38263;52.920;6.238;2022-08-21T13:09:08;23.70;99.90
52323;DHT22;38263;52.920;6.238;2022-08-21T13:11:35;23.90;99.90
52323;DHT22;38263;52.920;6.238;2022-08-21T13:14:05;23.40;99.90
52323;DHT22;38263;52.920;6.238;2022-08-21T13:16:35;23.60;99.90
52323;DHT22;38263;52.920;6.238;2022-08-21T13:19:03;23.80;99.90
52323;DHT22;38263;52.920;6.238;2022-08-21T13:21:49;23.90;99.90
52323;DHT22;38263;52.920;6.238;2022-08-21T13:24:19;23.70;99.90
52323;DHT22;38263;52.920;6.238;2022-08-21T13:26:46;23.70;99.90
52323;DHT22;38263;52.920;6.238;2022-08-21T13:29:15;23.80;99.90
52323;DHT22;38263;52.920;6.238;2022-08-21T13:31:51;22.70;99.90
52323;DHT22;38263;52.920;6.238;2022-08-21T13:34:19;24.00;99.90
52323;DHT22;38263;52.920;6.238;2022-08-21T13:36:45;23.90;99.90
52323;DHT22;38263;52.920;6.238;2022-08-21T13:39:16;24.40;99.90
52323;DHT22;38263;52.920;6.238;2022-08-21T13:41:44;24.00;99.90
52323;DHT22;38263;52.920;6.238;2022-08-21T13:44:22;24.20;99.90
52323;DHT22;38263;52.920;6.238;2022-08-21T13:46:52;24.30;99.90
52323;DHT22;38263;52.920;6.238;2022-08-21T13:49:21;24.40;99.90
52323;DHT22;38263;52.920;6.238;2022-08-21T13:51:48;24.20;99.90
52323;DHT22;38263;52.920;6.238;2022-08-21T13:54:23;24.20;99.90
52323;DHT22;38263;52.920;6.238;2022-08-21T13:56:51;24.40;99.90
52323;DHT22;38263;52.920;6.238;2022-08-21T13:59:33;25.90;99.90
52323;DHT22;38263;52.920;6.238;2022-08-21T14:02:14;24.20;99.90
52323;DHT22;38263;52.920;6.238;2022-08-21T14:04:55;24.40;99.90
52323;DHT22;38263;52.920;6.238;2022-08-21T14:07:31;24.30;99.90
52323;DHT22;38263;52.920;6.238;2022-08-21T14:12:42;24.50;99.90
52323;DHT22;38263;52.920;6.238;2022-08-21T14:15:09;25.80;99.90
52323;DHT22;38263;52.920;6.238;2022-08-21T14:17:39;24.20;99.90
52323;DHT22;38263;52.920;6.238;2022-08-21T14:20:09;24.40;99.90
52323;DHT22;38263;52.920;6.238;2022-08-21T14:22:45;24.30;99.90
52323;DHT22;38263;52.920;6.238;2022-08-21T14:28:38;24.50;99.90
52323;DHT22;38263;52.920;6.238;2022-08-21T14:30:43;24.40;99.90
52323;DHT22;38263;52.920;6.238;2022-08-21T14:33:11;24.50;99.90
52323;DHT22;38263;52.920;6.238;2022-08-21T14:35:37;24.60;99.90
52323;DHT22;38263;52.920;6.238;2022-08-21T14:38:15;24.60;99.90
52323;DHT22;38263;52.920;6.238;2022-08-21T14:40:41;24.60;99.90
52323;DHT22;38263;52.920;6.238;2022-08-21T14:43:08;24.30;99.90
52323;DHT22;38263;52.920;6.238;2022-08-21T14:45:34;24.40;99.90
52323;DHT22;38263;52.920;6.238;2022-08-21T14:48:02;24.40;99.90
52323;DHT22;38263;52.920;6.238;2022-08-21T14:50:27;24.40;99.90
52323;DHT22;38263;52.920;6.238;2022-08-21T14:52:53;24.20;99.90
52323;DHT22;38263;52.920;6.238;2022-08-21T14:55:19;24.10;99.90
52323;DHT22;38263;52.920;6.238;2022-08-21T14:57:46;24.10;99.90
52323;DHT22;38263;52.920;6.238;2022-08-21T15:00:14;25.40;99.90
52323;DHT22;38263;52.920;6.238;2022-08-21T15:02:42;24.10;99.90
52323;DHT22;38263;52.920;6.238;2022-08-21T15:05:08;24.10;99.90
52323;DHT22;38263;52.920;6.238;2022-08-21T15:07:34;23.70;99.90
52323;DHT22;38263;52.920;6.238;2022-08-21T15:10:00;24.00;99.90
52323;DHT22;38263;52.920;6.238;2022-08-21T15:12:26;23.70;99.90
52323;DHT22;38263;52.920;6.238;2022-08-21T15:14:51;23.90;99.90
52323;DHT22;38263;52.920;6.238;2022-08-21T15:17:18;23.70;99.90
52323;DHT22;38263;52.920;6.238;2022-08-21T15:19:44;23.70;99.90
52323;DHT22;38263;52.920;6.238;2022-08-21T15:22:09;24.20;99.90
52323;DHT22;38263;52.920;6.238;2022-08-21T15:24:35;23.90;99.90
52323;DHT22;38263;52.920;6.238;2022-08-21T15:27:02;24.60;99.90
52323;DHT22;38263;52.920;6.238;2022-08-21T15:29:30;24.10;99.90
52323;DHT22;38263;52.920;6.238;2022-08-21T15:34:42;24.40;99.90
52323;DHT22;38263;52.920;6.238;2022-08-21T15:37:08;24.20;99.90
52323;DHT22;38263;52.920;6.238;2022-08-21T15:39:34;24.40;99.90
52323;DHT22;38263;52.920;6.238;2022-08-21T15:42:01;24.40;99.90
52323;DHT22;38263;52.920;6.238;2022-08-21T15:44:28;24.30;99.90
52323;DHT22;38263;52.920;6.238;2022-08-21T15:46:54;24.60;99.90
52323;DHT22;38263;52.920;6.238;2022-08-21T15:49:20;24.70;99.90
52323;DHT22;38263;52.920;6.238;2022-08-21T15:51:45;24.50;99.90
52323;DHT22;38263;52.920;6.238;2022-08-21T15:54:11;24.60;99.90
52323;DHT22;38263;52.920;6.238;2022-08-21T15:56:39;24.50;99.90
52323;DHT22;38263;52.920;6.238;2022-08-21T15:59:08;24.50;99.90
52323;DHT22;38263;52.920;6.238;2022-08-21T16:01:38;25.50;99.90
52323;DHT22;38263;52.920;6.238;2022-08-21T16:04:04;24.60;99.90
52323;DHT22;38263;52.920;6.238;2022-08-21T16:06:30;24.30;99.90
52323;DHT22;38263;52.920;6.238;2022-08-21T16:08:56;24.40;99.90
52323;DHT22;38263;52.920;6.238;2022-08-21T16:11:21;24.50;99.90
52323;DHT22;38263;52.920;6.238;2022-08-21T16:13:47;24.20;99.90
52323;DHT22;38263;52.920;6.238;2022-08-21T16:16:17;24.30;99.90
52323;DHT22;38263;52.920;6.238;2022-08-21T16:18:43;24.30;99.90
52323;DHT22;38263;52.920;6.238;2022-08-21T16:21:09;24.30;99.90
52323;DHT22;38263;52.920;6.238;2022-08-21T16:23:35;24.20;99.90
52323;DHT22;38263;52.920;6.238;2022-08-21T16:26:03;24.20;99.90
52323;DHT22;38263;52.920;6.238;2022-08-21T16:28:30;24.20;99.90
52323;DHT22;38263;52.920;6.238;2022-08-21T16:30:56;24.10;99.90
52323;DHT22;38263;52.920;6.238;2022-08-21T16:33:29;24.10;99.90
52323;DHT22;38263;52.920;6.238;2022-08-21T16:35:56;24.00;99.90
52323;DHT22;38263;52.920;6.238;2022-08-21T16:38:22;24.10;99.90
52323;DHT22;38263;52.920;6.238;2022-08-21T16:40:48;24.10;99.90